sensor_id;sensor_type;location;lat;lon;timestamp;P1;durP1;ratioP1;P2;durP2;ratioP2
12350;SDS011;6240;51.538;7.696;2023-02-07T00:00:11;13.43;;;8.57;;
12350;SDS011;6240;51.538;7.696;2023-02-07T00:02:40;12.10;;;8.17;;
12350;SDS011;6240;51.538;7.696;2023-02-07T00:05:08;12.87;;;8.77;;
12350;SDS011;6240;51.538;7.696;2023-02-07T00:07:35;11.40;;;7.87;;
12350;SDS011;6240;51.538;7.696;2023-02-07T00:10:02;11.73;;;8.37;;
12350;SDS011;6240;51.538;7.696;2023-02-07T00:12:31;11.20;;;7.63;;
12350;SDS011;6240;51.538;7.696;2023-02-07T00:14:59;10.23;;;7.90;;
12350;SDS011;6240;51.538;7.696;2023-02-07T00:17:27;11.60;;;7.97;;
12350;SDS011;6240;51.538;7.696;2023-02-07T00:19:55;12.30;;;7.90;;
12350;SDS011;6240;51.538;7.696;2023-02-07T00:22:22;11.20;;;7.77;;
12350;SDS011;6240;51.538;7.696;2023-02-07T00:24:49;14.67;;;8.33;;
12350;SDS011;6240;51.538;7.696;2023-02-07T00:27:16;12.33;;;8.13;;
12350;SDS011;6240;51.538;7.696;2023-02-07T00:29:45;11.47;;;7.27;;
12350;SDS011;6240;51.538;7.696;2023-02-07T00:32:12;12.13;;;7.93;;
12350;SDS011;6240;51.538;7.696;2023-02-07T00:34:39;10.97;;;7.30;;
12350;SDS011;6240;51.538;7.696;2023-02-07T00:37:07;12.23;;;7.13;;
12350;SDS011;6240;51.538;7.696;2023-02-07T00:39:34;11.80;;;6.97;;
12350;SDS011;6240;51.538;7.696;2023-02-07T00:42:03;13.10;;;7.00;;
12350;SDS011;6240;51.538;7.696;2023-02-07T00:44:30;12.90;;;7.23;;
12350;SDS011;6240;51.538;7.696;2023-02-07T00:46:59;10.43;;;7.07;;
12350;SDS011;6240;51.538;7.696;2023-02-07T00:49:26;10.13;;;6.60;;
12350;SDS011;6240;51.538;7.696;2023-02-07T00:51:54;12.10;;;6.90;;
12350;SDS011;6240;51.538;7.696;2023-02-07T00:54:21;9.50;;;6.80;;
12350;SDS011;6240;51.538;7.696;2023-02-07T00:56:48;10.07;;;6.20;;
12350;SDS011;6240;51.538;7.696;2023-02-07T00:59:15;13.00;;;6.83;;
12350;SDS011;6240;51.538;7.696;2023-02-07T01:01:42;8.57;;;6.40;;
12350;SDS011;6240;51.538;7.696;2023-02-07T01:04:11;9.00;;;6.50;;
12350;SDS011;6240;51.538;7.696;2023-02-07T01:06:38;8.83;;;6.30;;
12350;SDS011;6240;51.538;7.696;2023-02-07T01:09:05;8.93;;;6.17;;
12350;SDS011;6240;51.538;7.696;2023-02-07T01:11:33;7.90;;;6.50;;
12350;SDS011;6240;51.538;7.696;2023-02-07T01:14:00;10.57;;;6.00;;
12350;SDS011;6240;51.538;7.696;2023-02-07T01:16:28;10.53;;;6.50;;
12350;SDS011;6240;51.538;7.696;2023-02-07T01:18:56;8.13;;;6.20;;
12350;SDS011;6240;51.538;7.696;2023-02-07T01:21:25;9.83;;;6.80;;
12350;SDS011;6240;51.538;7.696;2023-02-07T01:23:52;9.37;;;5.93;;
12350;SDS011;6240;51.538;7.696;2023-02-07T01:26:21;8.43;;;6.73;;
12350;SDS011;6240;51.538;7.696;2023-02-07T01:28:48;7.37;;;5.80;;
12350;SDS011;6240;51.538;7.696;2023-02-07T01:31:15;9.23;;;6.27;;
12350;SDS011;6240;51.538;7.696;2023-02-07T01:33:43;10.03;;;6.47;;
12350;SDS011;6240;51.538;7.696;2023-02-07T01:36:11;7.57;;;6.23;;
12350;SDS011;6240;51.538;7.696;2023-02-07T01:38:40;8.50;;;5.60;;
12350;SDS011;6240;51.538;7.696;2023-02-07T01:41:07;7.10;;;5.70;;
12350;SDS011;6240;51.538;7.696;2023-02-07T01:43:34;7.50;;;5.93;;
12350;SDS011;6240;51.538;7.696;2023-02-07T01:46:01;9.10;;;6.03;;
12350;SDS011;6240;51.538;7.696;2023-02-07T01:48:29;7.83;;;5.70;;
12350;SDS011;6240;51.538;7.696;2023-02-07T01:50:58;7.13;;;5.70;;
12350;SDS011;6240;51.538;7.696;2023-02-07T01:53:28;7.37;;;5.20;;
12350;SDS011;6240;51.538;7.696;2023-02-07T01:55:58;7.87;;;5.40;;
12350;SDS011;6240;51.538;7.696;2023-02-07T01:58:27;7.47;;;5.63;;
12350;SDS011;6240;51.538;7.696;2023-02-07T02:00:55;8.33;;;5.80;;
12350;SDS011;6240;51.538;7.696;2023-02-07T02:03:24;8.43;;;5.73;;
12350;SDS011;6240;51.538;7.696;2023-02-07T02:05:51;8.93;;;5.60;;
12350;SDS011;6240;51.538;7.696;2023-02-07T02:08:19;8.63;;;5.67;;
12350;SDS011;6240;51.538;7.696;2023-02-07T02:10:50;9.20;;;6.00;;
12350;SDS011;6240;51.538;7.696;2023-02-07T02:13:23;8.17;;;6.50;;
12350;SDS011;6240;51.538;7.696;2023-02-07T02:15:55;12.37;;;6.90;;
12350;SDS011;6240;51.538;7.696;2023-02-07T02:18:32;10.73;;;6.90;;
12350;SDS011;6240;51.538;7.696;2023-02-07T02:21:10;10.97;;;6.93;;
12350;SDS011;6240;51.538;7.696;2023-02-07T02:23:42;9.83;;;7.27;;
12350;SDS011;6240;51.538;7.696;2023-02-07T02:29:05;12.50;;;7.20;;
12350;SDS011;6240;51.538;7.696;2023-02-07T02:34:28;8.53;;;6.80;;
12350;SDS011;6240;51.538;7.696;2023-02-07T02:37:00;10.13;;;7.13;;
12350;SDS011;6240;51.538;7.696;2023-02-07T02:39:29;11.00;;;7.60;;
12350;SDS011;6240;51.538;7.696;2023-02-07T02:41:59;10.30;;;7.53;;
12350;SDS011;6240;51.538;7.696;2023-02-07T02:44:29;11.90;;;7.00;;
12350;SDS011;6240;51.538;7.696;2023-02-07T02:46:57;10.90;;;7.97;;
12350;SDS011;6240;51.538;7.696;2023-02-07T02:49:27;10.37;;;7.17;;
12350;SDS011;6240;51.538;7.696;2023-02-07T02:51:54;11.03;;;7.13;;
12350;SDS011;6240;51.538;7.696;2023-02-07T02:54:26;11.80;;;8.33;;
12350;SDS011;6240;51.538;7.696;2023-02-07T02:57:15;9.67;;;7.97;;
12350;SDS011;6240;51.538;7.696;2023-02-07T02:59:49;11.57;;;7.23;;
12350;SDS011;6240;51.538;7.696;2023-02-07T03:02:22;12.70;;;7.77;;
12350;SDS011;6240;51.538;7.696;2023-02-07T03:05:09;15.00;;;7.97;;
12350;SDS011;6240;51.538;7.696;2023-02-07T03:07:43;11.67;;;7.20;;
12350;SDS011;6240;51.538;7.696;2023-02-07T03:10:13;10.50;;;7.83;;
12350;SDS011;6240;51.538;7.696;2023-02-07T03:12:47;10.00;;;7.47;;
12350;SDS011;6240;51.538;7.696;2023-02-07T03:15:18;12.67;;;8.23;;
12350;SDS011;6240;51.538;7.696;2023-02-07T03:17:48;10.80;;;7.27;;
12350;SDS011;6240;51.538;7.696;2023-02-07T03:20:18;12.13;;;8.30;;
12350;SDS011;6240;51.538;7.696;2023-02-07T03:22:46;12.77;;;7.50;;
12350;SDS011;6240;51.538;7.696;2023-02-07T03:25:14;11.53;;;7.70;;
12350;SDS011;6240;51.538;7.696;2023-02-07T03:27:42;10.87;;;7.77;;
12350;SDS011;6240;51.538;7.696;2023-02-07T03:30:11;10.33;;;7.80;;
12350;SDS011;6240;51.538;7.696;2023-02-07T03:32:39;11.13;;;8.10;;
12350;SDS011;6240;51.538;7.696;2023-02-07T03:35:08;11.93;;;7.17;;
12350;SDS011;6240;51.538;7.696;2023-02-07T03:37:38;8.43;;;6.87;;
12350;SDS011;6240;51.538;7.696;2023-02-07T03:40:07;8.90;;;6.97;;
12350;SDS011;6240;51.538;7.696;2023-02-07T03:42:36;8.93;;;7.30;;
12350;SDS011;6240;51.538;7.696;2023-02-07T03:45:04;9.83;;;7.50;;
12350;SDS011;6240;51.538;7.696;2023-02-07T03:47:33;9.67;;;7.23;;
12350;SDS011;6240;51.538;7.696;2023-02-07T03:50:00;10.73;;;7.37;;
12350;SDS011;6240;51.538;7.696;2023-02-07T03:52:27;10.27;;;6.97;;
12350;SDS011;6240;51.538;7.696;2023-02-07T03:54:56;9.63;;;7.20;;
12350;SDS011;6240;51.538;7.696;2023-02-07T03:57:23;9.77;;;7.20;;
12350;SDS011;6240;51.538;7.696;2023-02-07T03:59:50;10.13;;;7.33;;
12350;SDS011;6240;51.538;7.696;2023-02-07T04:02:18;12.40;;;7.17;;
12350;SDS011;6240;51.538;7.696;2023-02-07T04:04:45;10.53;;;7.43;;
12350;SDS011;6240;51.538;7.696;2023-02-07T04:07:12;8.63;;;6.57;;
12350;SDS011;6240;51.538;7.696;2023-02-07T04:09:39;8.97;;;7.30;;
12350;SDS011;6240;51.538;7.696;2023-02-07T04:12:08;12.77;;;8.27;;
12350;SDS011;6240;51.538;7.696;2023-02-07T04:14:35;10.90;;;7.40;;
12350;SDS011;6240;51.538;7.696;2023-02-07T04:17:02;9.30;;;7.03;;
12350;SDS011;6240;51.538;7.696;2023-02-07T04:19:29;9.73;;;7.60;;
12350;SDS011;6240;51.538;7.696;2023-02-07T04:21:57;9.07;;;7.10;;
12350;SDS011;6240;51.538;7.696;2023-02-07T04:24:24;13.13;;;7.43;;
12350;SDS011;6240;51.538;7.696;2023-02-07T04:26:51;9.50;;;7.10;;
12350;SDS011;6240;51.538;7.696;2023-02-07T04:29:20;10.20;;;7.23;;
12350;SDS011;6240;51.538;7.696;2023-02-07T04:31:47;9.77;;;7.13;;
12350;SDS011;6240;51.538;7.696;2023-02-07T04:34:14;9.00;;;7.03;;
12350;SDS011;6240;51.538;7.696;2023-02-07T04:36:41;9.67;;;6.67;;
12350;SDS011;6240;51.538;7.696;2023-02-07T04:39:08;13.97;;;7.87;;
12350;SDS011;6240;51.538;7.696;2023-02-07T04:41:35;9.83;;;7.70;;
12350;SDS011;6240;51.538;7.696;2023-02-07T04:44:03;11.43;;;7.53;;
12350;SDS011;6240;51.538;7.696;2023-02-07T04:46:31;11.23;;;7.07;;
12350;SDS011;6240;51.538;7.696;2023-02-07T04:48:58;11.00;;;7.00;;
12350;SDS011;6240;51.538;7.696;2023-02-07T04:51:26;10.57;;;7.60;;
12350;SDS011;6240;51.538;7.696;2023-02-07T04:53:53;9.97;;;7.47;;
12350;SDS011;6240;51.538;7.696;2023-02-07T04:56:20;9.43;;;6.60;;
12350;SDS011;6240;51.538;7.696;2023-02-07T04:58:48;9.43;;;6.90;;
12350;SDS011;6240;51.538;7.696;2023-02-07T05:01:15;9.63;;;6.97;;
12350;SDS011;6240;51.538;7.696;2023-02-07T05:03:43;8.70;;;6.87;;
12350;SDS011;6240;51.538;7.696;2023-02-07T05:06:10;8.93;;;6.83;;
12350;SDS011;6240;51.538;7.696;2023-02-07T05:08:38;9.70;;;7.43;;
12350;SDS011;6240;51.538;7.696;2023-02-07T05:11:05;12.57;;;8.43;;
12350;SDS011;6240;51.538;7.696;2023-02-07T05:13:33;9.97;;;7.50;;
12350;SDS011;6240;51.538;7.696;2023-02-07T05:16:02;9.97;;;7.47;;
12350;SDS011;6240;51.538;7.696;2023-02-07T05:18:29;9.13;;;6.60;;
12350;SDS011;6240;51.538;7.696;2023-02-07T05:20:58;9.07;;;6.23;;
12350;SDS011;6240;51.538;7.696;2023-02-07T05:23:25;7.30;;;6.33;;
12350;SDS011;6240;51.538;7.696;2023-02-07T05:25:52;7.97;;;5.77;;
12350;SDS011;6240;51.538;7.696;2023-02-07T05:28:19;10.60;;;6.47;;
12350;SDS011;6240;51.538;7.696;2023-02-07T05:30:47;8.60;;;6.27;;
12350;SDS011;6240;51.538;7.696;2023-02-07T05:33:14;7.70;;;5.90;;
12350;SDS011;6240;51.538;7.696;2023-02-07T05:35:42;7.47;;;5.70;;
12350;SDS011;6240;51.538;7.696;2023-02-07T05:38:11;8.20;;;5.73;;
12350;SDS011;6240;51.538;7.696;2023-02-07T05:40:39;6.73;;;5.63;;
12350;SDS011;6240;51.538;7.696;2023-02-07T05:43:07;7.30;;;5.50;;
12350;SDS011;6240;51.538;7.696;2023-02-07T05:45:35;7.13;;;5.07;;
12350;SDS011;6240;51.538;7.696;2023-02-07T05:48:02;5.83;;;5.23;;
12350;SDS011;6240;51.538;7.696;2023-02-07T05:50:29;7.53;;;5.27;;
12350;SDS011;6240;51.538;7.696;2023-02-07T05:52:57;6.47;;;5.07;;
12350;SDS011;6240;51.538;7.696;2023-02-07T05:55:25;7.23;;;5.50;;
12350;SDS011;6240;51.538;7.696;2023-02-07T05:57:52;8.20;;;5.20;;
12350;SDS011;6240;51.538;7.696;2023-02-07T06:00:20;5.77;;;5.10;;
12350;SDS011;6240;51.538;7.696;2023-02-07T06:02:47;7.50;;;5.20;;
12350;SDS011;6240;51.538;7.696;2023-02-07T06:05:16;9.73;;;6.13;;
12350;SDS011;6240;51.538;7.696;2023-02-07T06:07:45;9.77;;;6.20;;
12350;SDS011;6240;51.538;7.696;2023-02-07T06:10:16;6.73;;;5.63;;
12350;SDS011;6240;51.538;7.696;2023-02-07T06:12:49;6.87;;;5.57;;
12350;SDS011;6240;51.538;7.696;2023-02-07T06:15:16;5.93;;;4.97;;
12350;SDS011;6240;51.538;7.696;2023-02-07T06:17:43;9.97;;;5.60;;
12350;SDS011;6240;51.538;7.696;2023-02-07T06:20:11;10.97;;;6.07;;
12350;SDS011;6240;51.538;7.696;2023-02-07T06:22:38;8.63;;;6.53;;
12350;SDS011;6240;51.538;7.696;2023-02-07T06:25:05;11.53;;;6.40;;
12350;SDS011;6240;51.538;7.696;2023-02-07T06:27:37;9.20;;;6.83;;
12350;SDS011;6240;51.538;7.696;2023-02-07T06:30:11;7.03;;;5.70;;
12350;SDS011;6240;51.538;7.696;2023-02-07T06:32:41;9.20;;;6.17;;
12350;SDS011;6240;51.538;7.696;2023-02-07T06:35:09;7.93;;;6.03;;
12350;SDS011;6240;51.538;7.696;2023-02-07T06:37:38;9.63;;;6.53;;
12350;SDS011;6240;51.538;7.696;2023-02-07T06:40:16;10.10;;;6.07;;
12350;SDS011;6240;51.538;7.696;2023-02-07T06:42:46;14.80;;;9.90;;
12350;SDS011;6240;51.538;7.696;2023-02-07T06:45:17;9.47;;;7.27;;
12350;SDS011;6240;51.538;7.696;2023-02-07T06:47:46;10.17;;;6.93;;
12350;SDS011;6240;51.538;7.696;2023-02-07T06:50:15;11.77;;;6.93;;
12350;SDS011;6240;51.538;7.696;2023-02-07T06:52:43;12.25;;;8.40;;
12350;SDS011;6240;51.538;7.696;2023-02-07T06:55:10;11.30;;;7.57;;
12350;SDS011;6240;51.538;7.696;2023-02-07T06:57:37;8.27;;;7.27;;
12350;SDS011;6240;51.538;7.696;2023-02-07T07:00:05;10.93;;;6.90;;
12350;SDS011;6240;51.538;7.696;2023-02-07T07:02:34;9.60;;;7.50;;
12350;SDS011;6240;51.538;7.696;2023-02-07T07:05:01;9.10;;;7.60;;
12350;SDS011;6240;51.538;7.696;2023-02-07T07:07:28;11.70;;;8.37;;
12350;SDS011;6240;51.538;7.696;2023-02-07T07:09:56;11.87;;;8.33;;
12350;SDS011;6240;51.538;7.696;2023-02-07T07:12:23;18.70;;;13.23;;
12350;SDS011;6240;51.538;7.696;2023-02-07T07:14:50;17.57;;;11.40;;
12350;SDS011;6240;51.538;7.696;2023-02-07T07:17:17;9.77;;;7.60;;
12350;SDS011;6240;51.538;7.696;2023-02-07T07:19:46;9.87;;;7.33;;
12350;SDS011;6240;51.538;7.696;2023-02-07T07:22:13;9.77;;;6.87;;
12350;SDS011;6240;51.538;7.696;2023-02-07T07:24:40;9.37;;;6.67;;
12350;SDS011;6240;51.538;7.696;2023-02-07T07:27:08;11.77;;;8.33;;
12350;SDS011;6240;51.538;7.696;2023-02-07T07:29:35;10.17;;;7.30;;
12350;SDS011;6240;51.538;7.696;2023-02-07T07:32:02;8.57;;;6.37;;
12350;SDS011;6240;51.538;7.696;2023-02-07T07:34:29;8.97;;;6.43;;
12350;SDS011;6240;51.538;7.696;2023-02-07T07:36:59;9.13;;;6.63;;
12350;SDS011;6240;51.538;7.696;2023-02-07T07:39:26;10.40;;;7.40;;
12350;SDS011;6240;51.538;7.696;2023-02-07T07:41:53;14.90;;;8.70;;
12350;SDS011;6240;51.538;7.696;2023-02-07T07:44:20;27.33;;;17.37;;
12350;SDS011;6240;51.538;7.696;2023-02-07T07:46:49;12.30;;;9.53;;
12350;SDS011;6240;51.538;7.696;2023-02-07T07:49:16;10.17;;;7.70;;
12350;SDS011;6240;51.538;7.696;2023-02-07T07:51:44;12.00;;;8.10;;
12350;SDS011;6240;51.538;7.696;2023-02-07T07:54:12;11.47;;;8.37;;
12350;SDS011;6240;51.538;7.696;2023-02-07T07:56:40;10.93;;;8.50;;
12350;SDS011;6240;51.538;7.696;2023-02-07T07:59:07;13.47;;;9.13;;
12350;SDS011;6240;51.538;7.696;2023-02-07T08:01:34;17.27;;;10.23;;
12350;SDS011;6240;51.538;7.696;2023-02-07T08:04:01;19.70;;;11.70;;
12350;SDS011;6240;51.538;7.696;2023-02-07T08:06:29;34.00;;;18.27;;
12350;SDS011;6240;51.538;7.696;2023-02-07T08:08:56;18.73;;;12.03;;
12350;SDS011;6240;51.538;7.696;2023-02-07T08:11:24;25.50;;;15.10;;
12350;SDS011;6240;51.538;7.696;2023-02-07T08:13:52;27.30;;;16.77;;
12350;SDS011;6240;51.538;7.696;2023-02-07T08:16:19;30.63;;;17.87;;
12350;SDS011;6240;51.538;7.696;2023-02-07T08:18:46;16.93;;;11.33;;
12350;SDS011;6240;51.538;7.696;2023-02-07T08:21:13;14.83;;;9.43;;
12350;SDS011;6240;51.538;7.696;2023-02-07T08:23:41;10.70;;;7.33;;
12350;SDS011;6240;51.538;7.696;2023-02-07T09:02:04;13.17;;;9.03;;
12350;SDS011;6240;51.538;7.696;2023-02-07T09:04:31;9.90;;;7.97;;
12350;SDS011;6240;51.538;7.696;2023-02-07T09:07:00;15.67;;;10.17;;
12350;SDS011;6240;51.538;7.696;2023-02-07T09:09:30;14.70;;;9.67;;
12350;SDS011;6240;51.538;7.696;2023-02-07T09:11:57;11.60;;;10.20;;
12350;SDS011;6240;51.538;7.696;2023-02-07T09:14:25;14.70;;;10.20;;
12350;SDS011;6240;51.538;7.696;2023-02-07T09:16:55;14.00;;;10.00;;
12350;SDS011;6240;51.538;7.696;2023-02-07T09:19:29;14.00;;;9.83;;
12350;SDS011;6240;51.538;7.696;2023-02-07T09:21:58;13.63;;;9.70;;
12350;SDS011;6240;51.538;7.696;2023-02-07T09:24:25;13.77;;;9.40;;
12350;SDS011;6240;51.538;7.696;2023-02-07T09:26:52;13.97;;;9.97;;
12350;SDS011;6240;51.538;7.696;2023-02-07T09:29:19;15.47;;;9.87;;
12350;SDS011;6240;51.538;7.696;2023-02-07T09:31:47;13.50;;;9.90;;
12350;SDS011;6240;51.538;7.696;2023-02-07T09:34:14;11.53;;;10.20;;
12350;SDS011;6240;51.538;7.696;2023-02-07T09:36:43;13.53;;;9.67;;
12350;SDS011;6240;51.538;7.696;2023-02-07T09:39:10;13.97;;;10.30;;
12350;SDS011;6240;51.538;7.696;2023-02-07T09:41:39;15.43;;;10.10;;
12350;SDS011;6240;51.538;7.696;2023-02-07T09:44:15;18.63;;;10.43;;
12350;SDS011;6240;51.538;7.696;2023-02-07T09:46:46;13.90;;;9.93;;
12350;SDS011;6240;51.538;7.696;2023-02-07T09:49:22;14.50;;;9.33;;
12350;SDS011;6240;51.538;7.696;2023-02-07T09:51:57;14.57;;;10.07;;
12350;SDS011;6240;51.538;7.696;2023-02-07T09:54:25;18.27;;;9.93;;
12350;SDS011;6240;51.538;7.696;2023-02-07T09:56:56;16.87;;;11.20;;
12350;SDS011;6240;51.538;7.696;2023-02-07T09:59:25;23.23;;;14.20;;
12350;SDS011;6240;51.538;7.696;2023-02-07T10:01:56;38.23;;;20.67;;
12350;SDS011;6240;51.538;7.696;2023-02-07T10:04:29;16.17;;;11.10;;
12350;SDS011;6240;51.538;7.696;2023-02-07T10:07:02;11.83;;;7.93;;
12350;SDS011;6240;51.538;7.696;2023-02-07T10:09:32;9.70;;;7.77;;
12350;SDS011;6240;51.538;7.696;2023-02-07T10:12:03;9.40;;;7.17;;
12350;SDS011;6240;51.538;7.696;2023-02-07T10:14:41;9.23;;;8.00;;
12350;SDS011;6240;51.538;7.696;2023-02-07T10:17:18;9.33;;;7.57;;
12350;SDS011;6240;51.538;7.696;2023-02-07T10:19:51;9.43;;;7.73;;
12350;SDS011;6240;51.538;7.696;2023-02-07T10:22:23;10.17;;;7.50;;
12350;SDS011;6240;51.538;7.696;2023-02-07T10:25:05;9.03;;;7.27;;
12350;SDS011;6240;51.538;7.696;2023-02-07T10:27:35;7.53;;;6.40;;
12350;SDS011;6240;51.538;7.696;2023-02-07T10:30:04;7.83;;;6.60;;
12350;SDS011;6240;51.538;7.696;2023-02-07T10:32:38;8.57;;;6.63;;
12350;SDS011;6240;51.538;7.696;2023-02-07T10:35:13;12.17;;;7.10;;
12350;SDS011;6240;51.538;7.696;2023-02-07T10:37:42;10.93;;;7.33;;
12350;SDS011;6240;51.538;7.696;2023-02-07T10:40:12;11.03;;;7.20;;
12350;SDS011;6240;51.538;7.696;2023-02-07T10:42:42;9.77;;;6.73;;
12350;SDS011;6240;51.538;7.696;2023-02-07T10:45:14;7.63;;;6.40;;
12350;SDS011;6240;51.538;7.696;2023-02-07T10:47:44;7.00;;;5.80;;
12350;SDS011;6240;51.538;7.696;2023-02-07T10:50:13;7.27;;;5.33;;
12350;SDS011;6240;51.538;7.696;2023-02-07T10:52:45;6.53;;;5.07;;
12350;SDS011;6240;51.538;7.696;2023-02-07T10:55:16;5.10;;;4.40;;
12350;SDS011;6240;51.538;7.696;2023-02-07T10:57:52;5.90;;;4.87;;
12350;SDS011;6240;51.538;7.696;2023-02-07T11:00:26;7.27;;;6.07;;
12350;SDS011;6240;51.538;7.696;2023-02-07T11:02:54;6.43;;;5.83;;
12350;SDS011;6240;51.538;7.696;2023-02-07T11:05:25;7.37;;;6.67;;
12350;SDS011;6240;51.538;7.696;2023-02-07T11:07:59;6.33;;;5.70;;
12350;SDS011;6240;51.538;7.696;2023-02-07T11:10:28;4.70;;;4.20;;
12350;SDS011;6240;51.538;7.696;2023-02-07T11:12:58;4.20;;;3.80;;
12350;SDS011;6240;51.538;7.696;2023-02-07T11:15:30;4.10;;;3.70;;
12350;SDS011;6240;51.538;7.696;2023-02-07T11:18:00;4.17;;;3.73;;
12350;SDS011;6240;51.538;7.696;2023-02-07T11:20:29;6.10;;;4.43;;
12350;SDS011;6240;51.538;7.696;2023-02-07T11:22:58;4.60;;;4.20;;
12350;SDS011;6240;51.538;7.696;2023-02-07T11:25:28;4.10;;;3.70;;
12350;SDS011;6240;51.538;7.696;2023-02-07T11:27:56;4.33;;;3.93;;
12350;SDS011;6240;51.538;7.696;2023-02-07T11:30:24;4.10;;;3.70;;
12350;SDS011;6240;51.538;7.696;2023-02-07T11:32:53;5.27;;;3.90;;
12350;SDS011;6240;51.538;7.696;2023-02-07T11:35:23;4.43;;;4.03;;
12350;SDS011;6240;51.538;7.696;2023-02-07T11:37:59;4.10;;;3.70;;
12350;SDS011;6240;51.538;7.696;2023-02-07T11:40:28;3.90;;;3.50;;
12350;SDS011;6240;51.538;7.696;2023-02-07T11:42:57;4.07;;;3.67;;
12350;SDS011;6240;51.538;7.696;2023-02-07T11:45:24;4.60;;;4.03;;
12350;SDS011;6240;51.538;7.696;2023-02-07T11:47:53;4.20;;;3.80;;
12350;SDS011;6240;51.538;7.696;2023-02-07T11:50:23;6.63;;;3.43;;
12350;SDS011;6240;51.538;7.696;2023-02-07T11:52:52;3.77;;;3.27;;
12350;SDS011;6240;51.538;7.696;2023-02-07T11:55:22;5.43;;;3.80;;
12350;SDS011;6240;51.538;7.696;2023-02-07T11:57:53;4.40;;;4.00;;
12350;SDS011;6240;51.538;7.696;2023-02-07T12:00:22;3.43;;;3.13;;
12350;SDS011;6240;51.538;7.696;2023-02-07T12:02:50;5.53;;;3.40;;
12350;SDS011;6240;51.538;7.696;2023-02-07T12:05:18;4.43;;;3.70;;
12350;SDS011;6240;51.538;7.696;2023-02-07T12:07:47;4.17;;;3.43;;
12350;SDS011;6240;51.538;7.696;2023-02-07T12:10:18;6.17;;;4.27;;
12350;SDS011;6240;51.538;7.696;2023-02-07T12:12:49;5.80;;;3.73;;
12350;SDS011;6240;51.538;7.696;2023-02-07T12:15:18;4.20;;;3.80;;
12350;SDS011;6240;51.538;7.696;2023-02-07T12:17:52;4.20;;;3.67;;
12350;SDS011;6240;51.538;7.696;2023-02-07T12:20:23;5.53;;;3.80;;
12350;SDS011;6240;51.538;7.696;2023-02-07T12:22:54;3.33;;;3.03;;
12350;SDS011;6240;51.538;7.696;2023-02-07T12:25:24;3.90;;;3.50;;
12350;SDS011;6240;51.538;7.696;2023-02-07T12:27:54;3.90;;;3.50;;
12350;SDS011;6240;51.538;7.696;2023-02-07T12:30:27;4.73;;;3.20;;
12350;SDS011;6240;51.538;7.696;2023-02-07T12:32:58;3.60;;;2.70;;
12350;SDS011;6240;51.538;7.696;2023-02-07T12:35:27;3.30;;;2.97;;
12350;SDS011;6240;51.538;7.696;2023-02-07T12:37:58;3.40;;;2.90;;
12350;SDS011;6240;51.538;7.696;2023-02-07T12:40:27;4.27;;;3.20;;
12350;SDS011;6240;51.538;7.696;2023-02-07T12:43:01;2.93;;;2.57;;
12350;SDS011;6240;51.538;7.696;2023-02-07T12:45:33;3.47;;;2.93;;
12350;SDS011;6240;51.538;7.696;2023-02-07T12:48:04;3.57;;;2.93;;
12350;SDS011;6240;51.538;7.696;2023-02-07T12:50:40;3.40;;;3.03;;
12350;SDS011;6240;51.538;7.696;2023-02-07T12:53:14;3.37;;;3.07;;
12350;SDS011;6240;51.538;7.696;2023-02-07T12:55:47;5.20;;;3.80;;
12350;SDS011;6240;51.538;7.696;2023-02-07T12:58:22;3.73;;;3.33;;
12350;SDS011;6240;51.538;7.696;2023-02-07T13:00:55;3.27;;;2.97;;
12350;SDS011;6240;51.538;7.696;2023-02-07T13:03:27;3.40;;;3.10;;
12350;SDS011;6240;51.538;7.696;2023-02-07T13:06:03;5.87;;;3.33;;
12350;SDS011;6240;51.538;7.696;2023-02-07T13:08:36;4.50;;;3.17;;
12350;SDS011;6240;51.538;7.696;2023-02-07T13:11:11;3.77;;;3.30;;
12350;SDS011;6240;51.538;7.696;2023-02-07T13:13:44;3.17;;;2.97;;
12350;SDS011;6240;51.538;7.696;2023-02-07T13:16:15;3.43;;;3.13;;
12350;SDS011;6240;51.538;7.696;2023-02-07T13:18:45;3.50;;;3.20;;
12350;SDS011;6240;51.538;7.696;2023-02-07T13:21:17;4.43;;;3.03;;
12350;SDS011;6240;51.538;7.696;2023-02-07T13:23:48;2.77;;;2.57;;
12350;SDS011;6240;51.538;7.696;2023-02-07T13:26:18;3.43;;;3.13;;
12350;SDS011;6240;51.538;7.696;2023-02-07T13:28:49;5.50;;;3.20;;
12350;SDS011;6240;51.538;7.696;2023-02-07T13:31:18;3.30;;;3.00;;
12350;SDS011;6240;51.538;7.696;2023-02-07T13:33:46;6.70;;;3.17;;
12350;SDS011;6240;51.538;7.696;2023-02-07T13:36:16;3.43;;;3.13;;
12350;SDS011;6240;51.538;7.696;2023-02-07T13:41:37;5.80;;;3.40;;
12350;SDS011;6240;51.538;7.696;2023-02-07T13:44:12;7.83;;;3.00;;
12350;SDS011;6240;51.538;7.696;2023-02-07T13:46:53;3.30;;;3.00;;
12350;SDS011;6240;51.538;7.696;2023-02-07T13:49:26;5.50;;;3.30;;
12350;SDS011;6240;51.538;7.696;2023-02-07T13:52:02;7.03;;;3.10;;
12350;SDS011;6240;51.538;7.696;2023-02-07T13:54:34;4.50;;;2.73;;
12350;SDS011;6240;51.538;7.696;2023-02-07T13:57:17;3.97;;;3.57;;
12350;SDS011;6240;51.538;7.696;2023-02-07T14:00:20;4.43;;;3.00;;
12350;SDS011;6240;51.538;7.696;2023-02-07T14:02:51;5.03;;;3.33;;
12350;SDS011;6240;51.538;7.696;2023-02-07T14:05:22;3.43;;;3.13;;
12350;SDS011;6240;51.538;7.696;2023-02-07T14:07:56;4.90;;;3.17;;
12350;SDS011;6240;51.538;7.696;2023-02-07T14:13:27;4.00;;;2.80;;
12350;SDS011;6240;51.538;7.696;2023-02-07T14:15:59;3.33;;;3.03;;
12350;SDS011;6240;51.538;7.696;2023-02-07T14:21:23;4.67;;;3.37;;
12350;SDS011;6240;51.538;7.696;2023-02-07T14:24:04;5.47;;;3.50;;
12350;SDS011;6240;51.538;7.696;2023-02-07T14:26:57;5.17;;;3.30;;
12350;SDS011;6240;51.538;7.696;2023-02-07T14:32:31;3.80;;;3.50;;
12350;SDS011;6240;51.538;7.696;2023-02-07T14:35:03;3.87;;;3.53;;
12350;SDS011;6240;51.538;7.696;2023-02-07T14:37:38;3.80;;;3.40;;
12350;SDS011;6240;51.538;7.696;2023-02-07T14:40:06;4.20;;;3.17;;
12350;SDS011;6240;51.538;7.696;2023-02-07T14:42:34;4.17;;;3.63;;
12350;SDS011;6240;51.538;7.696;2023-02-07T14:45:02;4.03;;;3.57;;
12350;SDS011;6240;51.538;7.696;2023-02-07T14:47:31;4.10;;;3.70;;
12350;SDS011;6240;51.538;7.696;2023-02-07T14:50:01;4.00;;;3.30;;
12350;SDS011;6240;51.538;7.696;2023-02-07T14:52:32;8.37;;;3.30;;
12350;SDS011;6240;51.538;7.696;2023-02-07T14:55:03;7.33;;;3.70;;
12350;SDS011;6240;51.538;7.696;2023-02-07T14:57:32;5.00;;;3.47;;
12350;SDS011;6240;51.538;7.696;2023-02-07T15:00:03;4.03;;;3.43;;
12350;SDS011;6240;51.538;7.696;2023-02-07T15:02:33;4.73;;;3.93;;
12350;SDS011;6240;51.538;7.696;2023-02-07T15:05:15;4.53;;;3.33;;
12350;SDS011;6240;51.538;7.696;2023-02-07T15:07:46;6.20;;;4.47;;
12350;SDS011;6240;51.538;7.696;2023-02-07T15:10:20;6.27;;;3.87;;
12350;SDS011;6240;51.538;7.696;2023-02-07T15:12:47;4.40;;;3.77;;
12350;SDS011;6240;51.538;7.696;2023-02-07T15:15:16;4.90;;;3.73;;
12350;SDS011;6240;51.538;7.696;2023-02-07T15:17:46;5.13;;;3.90;;
12350;SDS011;6240;51.538;7.696;2023-02-07T15:20:14;4.50;;;3.73;;
12350;SDS011;6240;51.538;7.696;2023-02-07T15:22:41;4.37;;;3.97;;
12350;SDS011;6240;51.538;7.696;2023-02-07T15:25:11;8.43;;;4.60;;
12350;SDS011;6240;51.538;7.696;2023-02-07T15:27:39;3.90;;;3.50;;
12350;SDS011;6240;51.538;7.696;2023-02-07T15:30:07;4.83;;;4.33;;
12350;SDS011;6240;51.538;7.696;2023-02-07T15:32:43;4.20;;;3.80;;
12350;SDS011;6240;51.538;7.696;2023-02-07T15:35:16;6.60;;;4.17;;
12350;SDS011;6240;51.538;7.696;2023-02-07T15:37:46;8.43;;;4.83;;
12350;SDS011;6240;51.538;7.696;2023-02-07T15:40:16;4.80;;;4.23;;
12350;SDS011;6240;51.538;7.696;2023-02-07T15:42:53;4.97;;;4.03;;
12350;SDS011;6240;51.538;7.696;2023-02-07T15:45:22;5.77;;;4.20;;
12350;SDS011;6240;51.538;7.696;2023-02-07T15:47:54;6.47;;;5.37;;
12350;SDS011;6240;51.538;7.696;2023-02-07T15:50:27;7.73;;;5.17;;
12350;SDS011;6240;51.538;7.696;2023-02-07T15:52:56;6.07;;;5.20;;
12350;SDS011;6240;51.538;7.696;2023-02-07T15:55:26;6.33;;;5.67;;
12350;SDS011;6240;51.538;7.696;2023-02-07T15:57:55;8.73;;;6.17;;
12350;SDS011;6240;51.538;7.696;2023-02-07T16:00:25;8.53;;;6.10;;
12350;SDS011;6240;51.538;7.696;2023-02-07T16:02:55;7.73;;;6.33;;